createdAt,value
2018-06-19T00:02:22.770Z,82.01
2018-06-19T00:04:50.935Z,81.70
2018-06-19T00:07:19.119Z,82.22
2018-06-19T00:09:47.290Z,82.64
2018-06-19T00:12:15.476Z,82.92
2018-06-19T00:14:43.644Z,82.89
2018-06-19T00:17:11.835Z,82.38
2018-06-19T00:19:44.866Z,82.75
2018-06-19T00:22:13.081Z,82.57
2018-06-19T00:24:41.258Z,82.67
2018-06-19T00:27:09.476Z,83.22
2018-06-19T00:29:37.651Z,83.29
2018-06-19T00:32:05.855Z,82.84
2018-06-19T00:34:34.055Z,82.79
2018-06-19T00:37:02.219Z,84.02
2018-06-19T00:39:30.390Z,83.67
2018-06-19T00:41:58.567Z,84.20
2018-06-19T00:44:26.742Z,84.62
2018-06-19T00:46:55.556Z,84.61
2018-06-19T00:49:23.803Z,83.60
2018-06-19T00:51:51.982Z,84.44
2018-06-19T00:54:20.162Z,85.23
2018-06-19T00:56:54.571Z,85.87
2018-06-19T00:59:22.941Z,86.17
2018-06-19T01:01:51.563Z,86.67
2018-06-19T01:04:19.762Z,87.14
2018-06-19T01:06:47.949Z,87.75
2018-06-19T01:09:16.121Z,88.29
2018-06-19T01:11:44.307Z,87.93
2018-06-19T01:14:12.467Z,88.89
2018-06-19T01:16:40.639Z,89.36
2018-06-19T01:19:08.818Z,89.13
2018-06-19T01:21:36.991Z,89.85
2018-06-19T01:24:05.174Z,89.76
2018-06-19T01:26:33.358Z,89.88
2018-06-19T01:29:01.526Z,90.14
2018-06-19T01:31:29.712Z,90.51
2018-06-19T01:33:57.895Z,90.92
2018-06-19T01:36:26.055Z,91.39
2018-06-19T01:38:54.238Z,91.55
2018-06-19T01:41:22.423Z,91.85
2018-06-19T01:43:50.670Z,92.07
2018-06-19T01:46:18.842Z,92.18
2018-06-19T01:48:47.019Z,92.03
2018-06-19T01:51:15.310Z,91.79
2018-06-19T01:53:43.478Z,92.29
2018-06-19T01:56:11.663Z,91.73
2018-06-19T01:58:39.847Z,92.61
2018-06-19T02:01:08.183Z,92.35
2018-06-19T02:03:36.375Z,92.56
2018-06-19T02:06:04.830Z,93.05
2018-06-19T02:08:33.007Z,93.40
2018-06-19T02:11:01.235Z,93.30
2018-06-19T02:13:29.390Z,93.34
2018-06-19T02:15:57.558Z,93.36
2018-06-19T02:18:25.753Z,93.56
2018-06-19T02:20:53.915Z,93.86
2018-06-19T02:23:22.087Z,93.86
2018-06-19T02:25:50.280Z,93.95
2018-06-19T02:28:18.462Z,94.15
2018-06-19T02:30:46.662Z,93.94
2018-06-19T02:33:14.847Z,94.39
2018-06-19T02:35:43.014Z,93.78
2018-06-19T02:38:11.183Z,94.55
2018-06-19T02:40:39.415Z,94.44
2018-06-19T02:43:07.583Z,94.85
2018-06-19T02:45:35.759Z,94.15
2018-06-19T02:48:03.950Z,94.64
2018-06-19T02:50:32.124Z,94.39
2018-06-19T02:53:00.299Z,94.52
2018-06-19T02:55:28.465Z,94.40
2018-06-19T02:57:56.643Z,93.89
2018-06-19T03:00:24.848Z,94.51
2018-06-19T03:02:53.186Z,92.65
2018-06-19T03:05:21.971Z,92.22
2018-06-19T03:07:50.276Z,92.09
2018-06-19T03:10:18.475Z,92.64
2018-06-19T03:12:46.655Z,92.83
2018-06-19T03:15:14.835Z,92.47
2018-06-19T03:17:43.250Z,91.56
2018-06-19T03:20:11.534Z,90.73
2018-06-19T03:22:39.712Z,90.74
2018-06-19T03:25:07.918Z,90.70
2018-06-19T03:27:36.078Z,90.07
2018-06-19T03:30:04.302Z,90.12
2018-06-19T03:32:32.479Z,89.86
2018-06-19T03:35:00.647Z,89.09
2018-06-19T03:37:28.839Z,89.40
2018-06-19T03:39:57.015Z,90.23
2018-06-19T03:42:25.180Z,90.01
2018-06-19T03:44:53.358Z,89.66
2018-06-19T03:47:21.527Z,89.72
2018-06-19T03:49:49.692Z,89.94
2018-06-19T03:52:17.871Z,89.61
2018-06-19T03:54:46.035Z,90.59
2018-06-19T03:57:14.199Z,90.40
2018-06-19T03:59:42.382Z,89.94
2018-06-19T04:02:10.558Z,89.82
2018-06-19T04:04:38.739Z,90.47
2018-06-19T04:07:06.947Z,89.45
2018-06-19T04:09:35.122Z,88.42
2018-06-19T04:12:03.296Z,88.41
2018-06-19T04:14:31.476Z,88.37
2018-06-19T04:16:59.642Z,89.04
2018-06-19T04:19:27.823Z,89.41
2018-06-19T04:21:56.207Z,87.38
2018-06-19T04:24:24.504Z,86.26
2018-06-19T04:26:52.663Z,86.86
2018-06-19T04:29:20.862Z,87.83
2018-06-19T04:31:49.103Z,87.54
2018-06-19T04:34:17.332Z,87.13
2018-06-19T04:36:45.519Z,86.89
2018-06-19T04:39:13.726Z,86.57
2018-06-19T04:41:42.402Z,87.67
2018-06-19T04:44:10.601Z,86.97
2018-06-19T04:46:38.958Z,87.87
2018-06-19T04:49:07.169Z,88.60
2018-06-19T04:51:35.349Z,88.71
2018-06-19T04:54:03.526Z,88.05
2018-06-19T04:56:31.711Z,87.91
2018-06-19T04:59:00.230Z,88.11
2018-06-19T05:01:28.403Z,89.03
2018-06-19T05:03:56.588Z,88.12
2018-06-19T05:06:24.807Z,88.02
2018-06-19T05:08:52.978Z,87.74
2018-06-19T05:11:21.176Z,88.54
2018-06-19T05:13:49.348Z,88.37
2018-06-19T05:16:17.554Z,88.10
2018-06-19T05:18:45.719Z,87.85
2018-06-19T05:21:13.927Z,88.23
2018-06-19T05:23:42.227Z,88.26
2018-06-19T05:26:10.418Z,88.71
2018-06-19T05:28:38.614Z,89.40
2018-06-19T05:31:06.855Z,89.71
2018-06-19T05:33:35.167Z,89.57
2018-06-19T05:36:03.362Z,90.23
2018-06-19T05:38:31.651Z,89.84
2018-06-19T05:40:59.818Z,89.97
2018-06-19T05:43:28.003Z,89.62
2018-06-19T05:45:56.199Z,89.53
2018-06-19T05:48:24.375Z,89.53
2018-06-19T05:50:52.735Z,89.68
2018-06-19T05:53:20.899Z,89.30
2018-06-19T05:55:49.071Z,88.73
2018-06-19T05:58:17.267Z,88.36
2018-06-19T06:00:45.447Z,88.53
2018-06-19T06:03:13.694Z,88.35
2018-06-19T06:05:41.958Z,87.67
2018-06-19T06:08:10.114Z,87.85
2018-06-19T06:10:38.593Z,87.92
2018-06-19T06:13:06.714Z,88.17
2018-06-19T06:15:34.931Z,88.41
2018-06-19T06:18:03.127Z,87.47
2018-06-19T06:20:31.306Z,88.10
2018-06-19T06:22:59.472Z,88.06
2018-06-19T06:25:27.655Z,88.22
2018-06-19T06:27:55.824Z,87.63
2018-06-19T06:30:23.983Z,88.12
2018-06-19T06:32:52.150Z,87.35
2018-06-19T06:35:20.298Z,86.59
2018-06-19T06:37:48.466Z,85.50
2018-06-19T06:40:16.631Z,86.25
2018-06-19T06:42:44.790Z,87.17
2018-06-19T06:45:12.967Z,87.35
2018-06-19T06:47:41.122Z,86.62
2018-06-19T06:50:09.310Z,87.09
2018-06-19T06:52:37.460Z,85.85
2018-06-19T06:55:05.649Z,86.59
2018-06-19T06:57:33.831Z,85.60
2018-06-19T07:00:01.994Z,86.11
2018-06-19T07:02:30.159Z,85.81
2018-06-19T07:04:58.323Z,85.72
2018-06-19T07:07:26.481Z,84.61
2018-06-19T07:09:55.065Z,85.51
2018-06-19T07:12:23.223Z,85.20
2018-06-19T07:14:51.387Z,85.72
2018-06-19T07:17:19.552Z,86.44
2018-06-19T07:19:47.706Z,87.10
2018-06-19T07:22:15.877Z,86.12
2018-06-19T07:24:44.034Z,85.14
2018-06-19T07:27:12.222Z,85.02
2018-06-19T07:29:40.387Z,84.39
2018-06-19T07:32:08.596Z,85.59
2018-06-19T07:34:36.718Z,84.75
2018-06-19T07:37:04.895Z,84.85
2018-06-19T07:39:33.066Z,85.30
2018-06-19T07:42:01.217Z,85.95
2018-06-19T07:44:29.378Z,85.64
2018-06-19T07:46:57.546Z,85.26
2018-06-19T07:49:25.732Z,85.38
2018-06-19T07:51:54.086Z,85.07
2018-06-19T07:54:22.252Z,84.74
2018-06-19T07:56:50.402Z,85.36
2018-06-19T07:59:18.566Z,85.70
2018-06-19T08:01:46.970Z,85.51
2018-06-19T08:04:15.465Z,86.76
2018-06-19T08:06:43.625Z,85.77
2018-06-19T08:09:12.310Z,86.07
2018-06-19T08:11:40.534Z,86.31
2018-06-19T08:14:08.690Z,86.62
2018-06-19T08:16:36.862Z,87.54
2018-06-19T08:19:05.042Z,88.34
2018-06-19T08:21:33.211Z,87.73
2018-06-19T08:24:01.375Z,87.93
2018-06-19T08:26:29.524Z,87.56
2018-06-19T08:28:57.699Z,88.66
2018-06-19T08:31:25.870Z,88.90
2018-06-19T08:33:54.202Z,89.56
2018-06-19T08:36:22.404Z,90.96
2018-06-19T08:38:50.522Z,91.25
2018-06-19T08:41:18.710Z,91.82
2018-06-19T08:43:46.891Z,92.88
2018-06-19T08:46:15.051Z,93.61
2018-06-19T08:48:43.218Z,94.74
2018-06-19T08:51:11.482Z,94.48
2018-06-19T08:53:39.683Z,95.51
2018-06-19T08:56:07.861Z,96.20
2018-06-19T08:58:36.126Z,96.29
2018-06-19T09:01:04.312Z,96.45
2018-06-19T09:03:32.546Z,97.16
2018-06-19T09:06:00.759Z,96.03
2018-06-19T09:08:28.948Z,96.21
2018-06-19T09:10:57.159Z,96.49
2018-06-19T09:13:25.397Z,96.41
2018-06-19T09:15:53.505Z,97.13
2018-06-19T09:18:21.711Z,96.58
2018-06-19T09:20:49.890Z,96.83
2018-06-19T09:23:18.063Z,96.07
2018-06-19T09:25:46.240Z,96.18
2018-06-19T09:28:14.402Z,97.55
2018-06-19T09:30:42.578Z,97.41
2018-06-19T09:33:10.760Z,97.17
2018-06-19T09:35:38.925Z,96.89
2018-06-19T09:38:07.130Z,97.97
2018-06-19T09:40:35.291Z,97.39
2018-06-19T09:43:03.456Z,97.44
2018-06-19T09:45:31.611Z,97.54
2018-06-19T09:47:59.771Z,97.83
2018-06-19T09:50:27.956Z,97.79
2018-06-19T09:52:56.143Z,97.84
2018-06-19T09:55:24.314Z,97.69
2018-06-19T09:57:52.475Z,98.63
2018-06-19T10:00:25.854Z,98.75
2018-06-19T10:02:54.056Z,99.27
2018-06-19T10:05:22.219Z,98.65
2018-06-19T10:07:50.403Z,98.49
2018-06-19T10:10:18.569Z,99.04
2018-06-19T10:12:46.746Z,98.97
2018-06-19T10:15:14.902Z,98.78
2018-06-19T10:17:43.068Z,97.71
2018-06-19T10:20:11.231Z,97.43
2018-06-19T10:22:39.423Z,97.31
2018-06-19T10:25:07.579Z,97.39
2018-06-19T10:27:35.916Z,96.75
2018-06-19T10:30:04.235Z,96.35
2018-06-19T10:32:32.403Z,94.65
2018-06-19T10:35:00.606Z,94.95
2018-06-19T10:37:28.906Z,95.83
2018-06-19T10:39:57.063Z,96.72
2018-06-19T10:42:25.246Z,96.75
2018-06-19T10:44:53.410Z,96.24
2018-06-19T10:47:21.591Z,96.47
2018-06-19T10:49:49.758Z,97.39
2018-06-19T10:52:17.927Z,97.42
2018-06-19T10:54:46.087Z,97.32
2018-06-19T10:57:14.246Z,97.06
2018-06-19T10:59:42.419Z,97.06
2018-06-19T11:02:10.575Z,96.53
2018-06-19T11:04:38.739Z,94.65
2018-06-19T11:07:06.967Z,94.03
2018-06-19T11:09:35.127Z,93.09
2018-06-19T11:12:03.340Z,91.81
2018-06-19T11:14:31.495Z,91.54
2018-06-19T11:16:59.659Z,90.46
2018-06-19T11:19:27.858Z,91.54
2018-06-19T11:21:56.032Z,90.61
2018-06-19T11:24:24.190Z,91.74
2018-06-19T11:26:52.358Z,90.86
2018-06-19T11:29:20.539Z,91.10
2018-06-19T11:31:48.694Z,89.23
2018-06-19T11:34:16.934Z,88.88
2018-06-19T11:36:45.112Z,87.54
2018-06-19T11:39:14.286Z,89.26
2018-06-19T11:41:43.396Z,88.31
2018-06-19T11:44:11.563Z,89.18
2018-06-19T11:46:39.771Z,87.95
2018-06-19T11:49:08.032Z,87.79
2018-06-19T11:51:36.163Z,87.01
2018-06-19T11:54:04.315Z,87.83
2018-06-19T11:56:32.507Z,88.25
2018-06-19T11:59:00.679Z,89.10
2018-06-19T12:01:28.842Z,87.91
2018-06-19T12:03:57.034Z,88.30
2018-06-19T12:06:25.212Z,87.87
2018-06-19T12:08:53.392Z,86.61
2018-06-19T12:11:21.586Z,86.10
2018-06-19T12:13:49.759Z,85.31
2018-06-19T12:16:17.922Z,81.86
2018-06-19T12:18:46.095Z,80.52
2018-06-19T12:21:14.255Z,81.40
2018-06-19T12:23:42.468Z,83.47
2018-06-19T12:26:10.635Z,83.34
2018-06-19T12:28:38.814Z,81.95
2018-06-19T12:31:07.075Z,81.45
2018-06-19T12:33:35.262Z,80.71
2018-06-19T12:36:03.650Z,79.46
2018-06-19T12:38:31.958Z,80.54
2018-06-19T12:41:00.128Z,77.61
2018-06-19T12:43:28.302Z,78.05
2018-06-19T12:45:56.546Z,76.19
2018-06-19T12:48:24.714Z,77.72
2018-06-19T12:52:06.551Z,78.11
2018-06-19T12:54:45.059Z,79.37
2018-06-19T12:57:13.311Z,80.70
2018-06-19T12:59:41.494Z,80.08
2018-06-19T13:02:09.683Z,80.76
2018-06-19T13:04:49.346Z,79.46
2018-06-19T13:07:17.574Z,78.58
2018-06-19T13:09:45.743Z,78.35
2018-06-19T13:12:25.259Z,78.55
2018-06-19T13:14:53.461Z,77.95
2018-06-19T13:17:33.174Z,75.88
2018-06-19T13:20:12.543Z,75.45
2018-06-19T13:22:40.719Z,74.56
2018-06-19T13:25:08.924Z,75.01
2018-06-19T13:27:37.118Z,76.20
2018-06-19T13:30:16.722Z,74.84
2018-06-19T13:32:44.947Z,75.25
2018-06-19T13:35:13.122Z,74.96
2018-06-19T13:37:42.589Z,75.66
2018-06-19T13:41:23.562Z,76.30
2018-06-19T13:44:04.671Z,75.12
2018-06-19T13:46:32.904Z,75.69
2018-06-19T13:49:01.127Z,74.60
2018-06-19T13:51:29.746Z,75.64
2018-06-19T13:53:57.914Z,74.16
2018-06-19T13:57:39.522Z,74.35
2018-06-19T14:00:25.859Z,75.08
2018-06-19T14:02:54.054Z,72.14
2018-06-19T14:05:22.226Z,73.23
2018-06-19T14:08:11.718Z,72.49
2018-06-19T14:10:51.048Z,71.96
2018-06-19T14:13:19.295Z,70.57
2018-06-19T14:15:48.760Z,69.98
2018-06-19T14:18:18.159Z,71.69
2018-06-19T14:20:46.372Z,71.08
2018-06-19T14:23:14.816Z,70.86
2018-06-19T14:25:43.042Z,71.92
2018-06-19T14:28:11.204Z,72.04
2018-06-19T14:30:39.400Z,70.16
2018-06-19T14:33:07.625Z,71.46
2018-06-19T14:35:35.787Z,71.85
2018-06-19T14:38:03.954Z,74.42
2018-06-19T14:40:32.137Z,74.35
2018-06-19T14:43:00.298Z,73.48
2018-06-19T14:45:28.476Z,73.31
2018-06-19T14:47:56.679Z,75.21
2018-06-19T14:50:24.894Z,75.56
2018-06-19T14:52:53.062Z,74.73
2018-06-19T14:55:21.251Z,75.06
2018-06-19T14:57:49.446Z,74.03
2018-06-19T15:00:17.650Z,74.23
2018-06-19T15:02:45.906Z,74.66
2018-06-19T15:05:14.098Z,74.57
2018-06-19T15:07:47.298Z,74.14
2018-06-19T15:10:15.927Z,73.49
2018-06-19T15:12:44.370Z,72.62
2018-06-19T15:15:12.919Z,71.04
2018-06-19T15:17:41.137Z,70.35
2018-06-19T15:20:09.355Z,69.68
2018-06-19T15:22:37.559Z,69.39
2018-06-19T15:25:05.780Z,70.68
2018-06-19T15:27:34.118Z,70.42
2018-06-19T15:30:02.705Z,70.29
2018-06-19T15:32:30.919Z,69.37
2018-06-19T15:34:59.158Z,69.90
2018-06-19T15:37:27.379Z,69.28
2018-06-19T15:39:55.578Z,67.77
2018-06-19T15:42:23.824Z,68.63
2018-06-19T15:44:52.011Z,70.61
2018-06-19T15:47:20.210Z,70.15
2018-06-19T15:49:48.442Z,69.47
2018-06-19T15:52:16.659Z,68.36
2018-06-19T15:54:44.887Z,70.10
2018-06-19T15:57:13.247Z,70.85
2018-06-19T15:59:41.490Z,71.05
2018-06-19T16:02:09.711Z,70.86
2018-06-19T16:04:37.911Z,71.22
2018-06-19T16:07:06.083Z,72.08
2018-06-19T16:09:34.439Z,70.60
2018-06-19T16:12:02.791Z,70.84
2018-06-19T16:14:30.963Z,69.94
2018-06-19T16:16:59.140Z,71.23
2018-06-19T16:19:27.560Z,71.12
2018-06-19T16:21:55.741Z,70.21
2018-06-19T16:24:23.919Z,69.70
2018-06-19T16:26:52.659Z,71.90
2018-06-19T16:29:20.839Z,71.60
2018-06-19T16:31:49.015Z,70.30
2018-06-19T16:34:17.186Z,70.00
2018-06-19T16:36:45.452Z,70.03
2018-06-19T16:39:13.652Z,71.03
2018-06-19T16:41:41.815Z,71.20
2018-06-19T16:44:10.012Z,70.41
2018-06-19T16:46:38.217Z,69.73
2018-06-19T16:49:06.422Z,69.58
2018-06-19T16:51:34.710Z,71.00
2018-06-19T16:54:02.895Z,72.37
2018-06-19T16:56:31.131Z,73.00
2018-06-19T16:58:59.378Z,72.02
2018-06-19T17:01:27.610Z,73.48
2018-06-19T17:03:55.778Z,72.00
2018-06-19T17:06:23.950Z,71.35
2018-06-19T17:08:52.134Z,72.04
2018-06-19T17:11:20.311Z,71.10
2018-06-19T17:13:48.494Z,72.75
2018-06-19T17:16:16.652Z,73.36
2018-06-19T17:18:44.815Z,72.31
2018-06-19T17:21:13.019Z,73.29
2018-06-19T17:23:41.411Z,72.47
2018-06-19T17:26:09.604Z,71.54
2018-06-19T17:28:37.830Z,71.95
2018-06-19T17:31:06.050Z,72.17
2018-06-19T17:33:34.286Z,71.94
2018-06-19T17:36:02.505Z,72.51
2018-06-19T17:38:30.666Z,72.53
2018-06-19T17:40:58.994Z,73.15
2018-06-19T17:43:27.141Z,72.73
2018-06-19T17:45:55.359Z,73.32
2018-06-19T17:48:23.530Z,72.78
2018-06-19T17:50:51.735Z,72.76
2018-06-19T17:53:20.182Z,72.10
2018-06-19T17:55:48.436Z,74.53
2018-06-19T17:58:16.632Z,76.73
2018-06-19T18:00:44.838Z,74.04
2018-06-19T18:03:13.048Z,74.78
2018-06-19T18:05:41.251Z,77.13
2018-06-19T18:08:09.451Z,77.80
2018-06-19T18:10:37.696Z,76.60
2018-06-19T18:13:05.882Z,75.82
2018-06-19T18:15:34.072Z,77.79
2018-06-19T18:18:02.254Z,79.33
2018-06-19T18:20:30.435Z,78.51
2018-06-19T18:22:58.670Z,80.01
2018-06-19T18:25:26.879Z,80.72
2018-06-19T18:27:55.091Z,81.19
2018-06-19T18:30:23.352Z,82.45
2018-06-19T18:32:51.568Z,82.72
2018-06-19T18:35:19.818Z,82.88
2018-06-19T18:37:48.027Z,82.89
2018-06-19T18:40:16.298Z,83.70
2018-06-19T18:42:44.519Z,83.47
2018-06-19T18:45:12.750Z,83.55
2018-06-19T18:47:41.026Z,83.20
2018-06-19T18:50:10.045Z,84.18
2018-06-19T18:52:38.243Z,83.88
2018-06-19T18:55:06.429Z,84.68
2018-06-19T18:57:34.779Z,84.95
2018-06-19T19:00:03.007Z,86.10
2018-06-19T19:02:31.255Z,85.83
2018-06-19T19:04:59.471Z,86.94
2018-06-19T19:07:27.797Z,86.25
2018-06-19T19:10:01.214Z,87.05
2018-06-19T19:12:29.427Z,86.33
2018-06-19T19:15:02.915Z,87.08
2018-06-19T19:17:36.579Z,87.27
2018-06-19T19:20:04.776Z,87.80
2018-06-19T19:22:33.250Z,88.22
2018-06-19T19:25:01.467Z,88.17
2018-06-19T19:27:35.095Z,88.76
2018-06-19T19:30:03.329Z,88.97
2018-06-19T19:32:31.527Z,88.44
2018-06-19T19:34:59.770Z,88.43
2018-06-19T19:37:33.271Z,89.31
2018-06-19T19:40:01.471Z,89.06
2018-06-19T19:42:29.863Z,89.76
2018-06-19T19:44:58.047Z,89.75
2018-06-19T19:47:31.378Z,88.62
2018-06-19T19:49:59.623Z,89.37
2018-06-19T19:52:28.687Z,89.25
2018-06-19T19:54:56.900Z,89.66
2018-06-19T19:57:30.376Z,89.40
2018-06-19T19:59:58.587Z,89.75
2018-06-19T20:02:26.800Z,89.52
2018-06-19T20:04:54.988Z,89.63
2018-06-19T20:07:23.179Z,89.87
2018-06-19T20:09:51.447Z,90.80
2018-06-19T20:12:19.618Z,91.25
2018-06-19T20:14:47.800Z,91.23
2018-06-19T20:17:16.368Z,91.53
2018-06-19T20:19:44.551Z,91.00
2018-06-19T20:22:12.744Z,91.30
2018-06-19T20:24:40.910Z,91.64
2018-06-19T20:27:09.123Z,92.06
2018-06-19T20:29:37.299Z,91.80
2018-06-19T20:32:05.483Z,91.99
2018-06-19T20:34:33.687Z,91.71
2018-06-19T20:37:01.855Z,92.27
2018-06-19T20:39:30.036Z,92.18
2018-06-19T20:41:58.213Z,92.68
2018-06-19T20:44:26.382Z,92.38
2018-06-19T20:46:54.682Z,92.83
2018-06-19T20:49:22.868Z,92.88
2018-06-19T20:51:51.031Z,92.43
2018-06-19T20:54:19.203Z,93.68
2018-06-19T20:56:47.423Z,93.69
2018-06-19T20:59:15.619Z,93.59
2018-06-19T21:01:43.841Z,93.71
2018-06-19T21:04:12.127Z,94.07
2018-06-19T21:06:40.348Z,94.04
2018-06-19T21:09:08.821Z,94.72
2018-06-19T21:11:36.997Z,94.71
2018-06-19T21:14:05.156Z,94.94
2018-06-19T21:16:33.360Z,95.05
2018-06-19T21:19:01.725Z,95.29
2018-06-19T21:21:29.900Z,95.68
2018-06-19T21:23:58.069Z,96.01
2018-06-19T21:26:26.472Z,96.31
2018-06-19T21:28:54.634Z,95.82
2018-06-19T21:31:22.810Z,95.86
2018-06-19T21:33:51.012Z,95.85
2018-06-19T21:36:19.202Z,96.63
2018-06-19T21:38:47.374Z,95.87
2018-06-19T21:41:15.554Z,96.04
2018-06-19T21:43:43.743Z,96.07
2018-06-19T21:46:11.887Z,96.15
2018-06-19T21:48:40.087Z,95.62
2018-06-19T21:51:08.276Z,95.87
2018-06-19T21:53:36.472Z,95.81
2018-06-19T21:56:04.683Z,96.00
2018-06-19T21:58:32.887Z,96.14
2018-06-19T22:01:01.080Z,96.25
2018-06-19T22:03:29.264Z,96.58
2018-06-19T22:05:57.435Z,96.20
2018-06-19T22:08:56.314Z,96.79
2018-06-19T22:11:25.138Z,96.83
2018-06-19T22:13:53.943Z,96.57
2018-06-19T22:16:22.159Z,96.78
2018-06-19T22:18:50.707Z,96.98
2018-06-19T22:21:18.899Z,97.55
2018-06-19T22:23:47.079Z,96.51
2018-06-19T22:26:15.263Z,97.17
2018-06-19T22:28:43.477Z,96.66
2018-06-19T22:31:11.651Z,96.73
2018-06-19T22:33:39.827Z,96.75
2018-06-19T22:36:08.035Z,97.37
2018-06-19T22:38:36.278Z,97.24
2018-06-19T22:41:04.403Z,96.54
2018-06-19T22:43:32.555Z,96.61
2018-06-19T22:46:00.739Z,96.68
2018-06-19T22:48:28.925Z,96.61
2018-06-19T22:50:57.121Z,96.99
2018-06-19T22:53:25.307Z,97.85
2018-06-19T22:55:53.467Z,97.61
2018-06-19T22:58:21.685Z,97.45
2018-06-19T23:00:49.850Z,98.24
2018-06-19T23:03:18.020Z,98.17
2018-06-19T23:05:46.182Z,97.77
2018-06-19T23:08:14.377Z,98.08
2018-06-19T23:10:42.535Z,98.62
2018-06-19T23:13:10.696Z,98.42
2018-06-19T23:15:38.848Z,97.44
2018-06-19T23:18:07.012Z,97.81
2018-06-19T23:20:35.166Z,97.86
2018-06-19T23:23:03.364Z,97.96
2018-06-19T23:25:31.515Z,97.88
2018-06-19T23:27:59.695Z,97.58
2018-06-19T23:30:27.853Z,97.71
2018-06-19T23:32:56.024Z,97.51
2018-06-19T23:35:24.200Z,97.29
2018-06-19T23:37:52.372Z,98.01
2018-06-19T23:40:20.545Z,97.90
2018-06-19T23:42:48.774Z,98.14
2018-06-19T23:45:16.946Z,98.45
2018-06-19T23:47:45.119Z,97.83
2018-06-19T23:50:13.290Z,98.80
2018-06-19T23:52:41.454Z,98.42
2018-06-19T23:55:09.654Z,98.72
2018-06-19T23:57:37.838Z,98.55
